Time;durP1;ratioP1;P1;durP2;ratioP2;P2;SDS_P1;SDS_P2;PMS_P1;PMS_P2;Temp;Humidity;BMP_temperature;BMP_pressure;BME280_temperature;BME280_humidity;BME280_pressure;Samples;Min_cycle;Max_cycle;Signal;HPM_P1;HPM_P2
2023/05/05 00:01:06;;;;;;;;;;;;;;;;;;5050914;28;19921;-60
2023/05/05 00:03:32;;;;;;;;;;;;;;;;;;5048957;28;19921;-59
2023/05/05 00:05:58;;;;;;;;;;;;;;;;;;5051049;28;19927;-60
2023/05/05 00:08:24;;;;;;;;;;;;;;;;;;5050893;28;20039;-60
2023/05/05 00:10:50;;;;;;;;;;;;;;;;;;5049876;28;19924;-60
2023/05/05 00:13:16;;;;;;;;;;;;;;;;;;5049542;28;19968;-60
2023/05/05 00:15:42;;;;;;;;;;;;;;;;;;5050598;28;19920;-60
2023/05/05 00:18:08;;;;;;;;;;;;;;;;;;5050154;28;19936;-60
2023/05/05 00:20:34;;;;;;;;;;;;;;;;;;5050723;28;19924;-60
2023/05/05 00:23:00;;;;;;;;;;;;;;;;;;5050425;28;19925;-60
2023/05/05 00:25:26;;;;;;;;;;;;;;;;;;5049892;28;19935;-60
2023/05/05 00:27:52;;;;;;;;;;;;;;;;;;5050713;28;20333;-60
2023/05/05 00:30:18;;;;;;;;;;;;;;;;;;5050693;28;19920;-60
2023/05/05 00:32:44;;;;;;;;;;;;;;;;;;5050129;28;19931;-60
2023/05/05 00:35:10;;;;;;;;;;;;;;;;;;5050644;28;19931;-60
2023/05/05 00:37:36;;;;;;;;;;;;;;;;;;5050650;28;19921;-60
2023/05/05 00:40:02;;;;;;;;;;;;;;;;;;5050214;28;19955;-59
2023/05/05 00:42:28;;;;;;;;;;;;;;;;;;5050608;28;20283;-60
2023/05/05 00:44:54;;;;;;;;;;;;;;;;;;5050882;28;19935;-60
2023/05/05 00:47:20;;;;;;;;;;;;;;;;;;5049909;28;19924;-60
2023/05/05 00:49:46;;;;;;;;;;;;;;;;;;5051105;28;19920;-60
2023/05/05 00:52:12;;;;;;;;;;;;;;;;;;5054280;28;19921;-60
2023/05/05 00:54:38;;;;;;;;;;;;;;;;;;5053867;28;19920;-60
2023/05/05 00:57:04;;;;;;;;;;;;;;;;;;5054377;28;19928;-60
2023/05/05 00:59:30;;;;;;;;;;;;;;;;;;5054299;28;19929;-60
2023/05/05 01:01:56;;;;;;;;;;;;;;;;;;5053663;28;20004;-60
2023/05/05 01:04:22;;;;;;;;;;;;;;;;;;5054116;28;19921;-60
2023/05/05 01:06:48;;;;;;;;;;;;;;;;;;5054428;28;19921;-60
2023/05/05 01:09:14;;;;;;;;;;;;;;;;;;5053210;28;19982;-60
2023/05/05 01:11:40;;;;;;;;;;;;;;;;;;5054229;28;19928;-60
2023/05/05 01:14:06;;;;;;;;;;;;;;;;;;5052668;28;19975;-60
2023/05/05 01:16:32;;;;;;;;;;;;;;;;;;5053660;28;19925;-59
2023/05/05 01:18:58;;;;;;;;;;;;;;;;;;5036104;28;20074;-60
2023/05/05 01:21:26;;;;;;;;;;;;;;;;;;5053702;28;20322;-59
2023/05/05 01:23:52;;;;;;;;;;;;;;;;;;5053010;28;20462;-59
2023/05/05 01:26:18;;;;;;;;;;;;;;;;;;5053779;28;20043;-60
2023/05/05 01:28:44;;;;;;;;;;;;;;;;;;5052445;28;19944;-60
2023/05/05 01:31:10;;;;;;;;;;;;;;;;;;5052865;28;19932;-60
2023/05/05 01:33:36;;;;;;;;;;;;;;;;;;5053848;28;19927;-60
2023/05/05 01:36:02;;;;;;;;;;;;;;;;;;5053700;28;19921;-60
2023/05/05 01:38:28;;;;;;;;;;;;;;;;;;5052910;28;20043;-60
2023/05/05 01:40:54;;;;;;;;;;;;;;;;;;5053140;28;19924;-60
2023/05/05 01:43:20;;;;;;;;;;;;;;;;;;5053492;28;19924;-60
2023/05/05 01:45:46;;;;;;;;;;;;;;;;;;5052961;28;20040;-60
2023/05/05 01:48:11;;;;;;;;;;;;;;;;;;5053353;28;19927;-60
2023/05/05 01:50:37;;;;;;;;;;;;;;;;;;5053307;28;19932;-60
2023/05/05 01:53:03;;;;;;;;;;;;;;;;;;5052891;28;19943;-60
2023/05/05 01:55:29;;;;;;;;;;;;;;;;;;5053422;28;19925;-60
2023/05/05 01:57:55;;;;;;;;;;;;;;;;;;5053239;28;20003;-59
2023/05/05 02:00:23;;;;;;;;;;;;;;;;;;5052551;28;20371;-59
2023/05/05 02:02:49;;;;;;;;;;;;;;;;;;5052891;28;19924;-60
2023/05/05 02:05:18;;;;;;;;;;;;;;;;;;5053107;28;19935;-60
2023/05/05 02:07:44;;;;;;;;;;;;;;;;;;5052587;28;20422;-60
2023/05/05 02:10:10;;;;;;;;;;;;;;;;;;5052946;28;19964;-60
2023/05/05 02:12:36;;;;;;;;;;;;;;;;;;5052847;28;19936;-60
2023/05/05 02:15:02;;;;;;;;;;;;;;;;;;5052376;28;19925;-60
2023/05/05 02:17:28;;;;;;;;;;;;;;;;;;5052573;28;19920;-60
2023/05/05 02:19:53;;;;;;;;;;;;;;;;;;5052790;28;19928;-60
2023/05/05 02:22:19;;;;;;;;;;;;;;;;;;5052214;28;19946;-60
2023/05/05 02:24:45;;;;;;;;;;;;;;;;;;5052447;28;19928;-60
2023/05/05 02:27:12;;;;;;;;;;;;;;;;;;5052272;28;19943;-60
2023/05/05 02:29:38;;;;;;;;;;;;;;;;;;5051815;28;19928;-60
2023/05/05 02:32:04;;;;;;;;;;;;;;;;;;5052491;28;20025;-60
2023/05/05 02:34:29;;;;;;;;;;;;;;;;;;5052699;28;20011;-59
2023/05/05 02:36:56;;;;;;;;;;;;;;;;;;5051786;28;19944;-60
2023/05/05 02:39:22;;;;;;;;;;;;;;;;;;5052234;28;19982;-60
2023/05/05 02:41:47;;;;;;;;;;;;;;;;;;5052329;28;19975;-59
2023/05/05 02:44:13;;;;;;;;;;;;;;;;;;5050951;28;19931;-59
2023/05/05 02:46:39;;;;;;;;;;;;;;;;;;5052093;28;19963;-60
2023/05/05 02:49:05;;;;;;;;;;;;;;;;;;5052063;28;19929;-60
2023/05/05 02:51:31;;;;;;;;;;;;;;;;;;5052092;28;19920;-60
2023/05/05 02:53:57;;;;;;;;;;;;;;;;;;5051522;28;19920;-60
2023/05/05 02:56:23;;;;;;;;;;;;;;;;;;5052089;28;19931;-60
2023/05/05 02:58:49;;;;;;;;;;;;;;;;;;5052099;28;19976;-60
2023/05/05 03:01:15;;;;;;;;;;;;;;;;;;5051402;28;19935;-60
2023/05/05 03:03:41;;;;;;;;;;;;;;;;;;5051890;28;19924;-60
2023/05/05 03:06:07;;;;;;;;;;;;;;;;;;5051903;28;20404;-60
2023/05/05 03:08:33;;;;;;;;;;;;;;;;;;5051224;28;19922;-60
2023/05/05 03:10:59;;;;;;;;;;;;;;;;;;5051530;28;19947;-59
2023/05/05 03:13:25;;;;;;;;;;;;;;;;;;5051222;28;19925;-60
2023/05/05 03:15:51;;;;;;;;;;;;;;;;;;5050125;28;20459;-60
2023/05/05 03:18:17;;;;;;;;;;;;;;;;;;5051384;28;19932;-60
2023/05/05 03:20:43;;;;;;;;;;;;;;;;;;5050575;28;19932;-60
2023/05/05 03:23:09;;;;;;;;;;;;;;;;;;5050600;28;19978;-59
2023/05/05 03:25:35;;;;;;;;;;;;;;;;;;5051573;28;20360;-60
2023/05/05 03:28:01;;;;;;;;;;;;;;;;;;5073481;28;19925;-60
2023/05/05 03:30:27;;;;;;;;;;;;;;;;;;5050627;28;19921;-60
2023/05/05 03:32:53;;;;;;;;;;;;;;;;;;5051267;28;19931;-60
2023/05/05 03:35:19;;;;;;;;;;;;;;;;;;5051427;28;19947;-60
2023/05/05 03:37:45;;;;;;;;;;;;;;;;;;5050694;28;20477;-60
2023/05/05 03:40:11;;;;;;;;;;;;;;;;;;5051375;28;19933;-60
2023/05/05 03:42:37;;;;;;;;;;;;;;;;;;5051265;28;19928;-60
2023/05/05 03:45:03;;;;;;;;;;;;;;;;;;5050837;28;20371;-60
2023/05/05 03:47:29;;;;;;;;;;;;;;;;;;5051135;28;19933;-60
2023/05/05 03:49:55;;;;;;;;;;;;;;;;;;5050779;28;19928;-60
2023/05/05 03:52:21;;;;;;;;;;;;;;;;;;5050435;28;19920;-60
2023/05/05 03:54:47;;;;;;;;;;;;;;;;;;5050834;28;19921;-60
2023/05/05 03:57:13;;;;;;;;;;;;;;;;;;5049884;28;20011;-60
2023/05/05 03:59:39;;;;;;;;;;;;;;;;;;5050396;28;19976;-60
2023/05/05 04:02:05;;;;;;;;;;;;;;;;;;5051024;28;19932;-60
2023/05/05 04:04:31;;;;;;;;;;;;;;;;;;5051084;28;19951;-60
2023/05/05 04:06:57;;;;;;;;;;;;;;;;;;5050475;28;19970;-61
2023/05/05 04:09:23;;;;;;;;;;;;;;;;;;5050858;28;19925;-61
2023/05/05 04:11:49;;;;;;;;;;;;;;;;;;5050735;28;19927;-61
2023/05/05 04:14:15;;;;;;;;;;;;;;;;;;5050098;28;19924;-60
2023/05/05 04:16:41;;;;;;;;;;;;;;;;;;5050753;28;19928;-60
2023/05/05 04:19:07;;;;;;;;;;;;;;;;;;5050761;28;19948;-60
2023/05/05 04:21:33;;;;;;;;;;;;;;;;;;5050146;28;19931;-60
2023/05/05 04:23:59;;;;;;;;;;;;;;;;;;5049806;28;20287;-60
2023/05/05 04:26:26;;;;;;;;;;;;;;;;;;5055093;28;19932;-59
2023/05/05 04:28:52;;;;;;;;;;;;;;;;;;5053538;28;20032;-60
2023/05/05 04:31:18;;;;;;;;;;;;;;;;;;5055129;28;20292;-59
2023/05/05 04:33:43;;;;;;;;;;;;;;;;;;5055109;28;19921;-60
2023/05/05 04:36:09;;;;;;;;;;;;;;;;;;5053135;28;19931;-59
2023/05/05 04:38:35;;;;;;;;;;;;;;;;;;5055054;28;19988;-59
2023/05/05 04:41:01;;;;;;;;;;;;;;;;;;5054949;28;19921;-60
2023/05/05 04:43:27;;;;;;;;;;;;;;;;;;5054680;28;19928;-60
2023/05/05 04:45:53;;;;;;;;;;;;;;;;;;5054894;28;19949;-60
2023/05/05 04:48:19;;;;;;;;;;;;;;;;;;5054548;28;19925;-60
2023/05/05 04:50:45;;;;;;;;;;;;;;;;;;5052886;28;19924;-60
2023/05/05 04:53:11;;;;;;;;;;;;;;;;;;5054818;28;19925;-59
2023/05/05 04:55:37;;;;;;;;;;;;;;;;;;5054699;28;20441;-59
2023/05/05 04:58:03;;;;;;;;;;;;;;;;;;5053942;28;19920;-59
2023/05/05 05:00:29;;;;;;;;;;;;;;;;;;5054572;28;19975;-58
2023/05/05 05:02:55;;;;;;;;;;;;;;;;;;5053142;28;19948;-58
2023/05/05 05:05:21;;;;;;;;;;;;;;;;;;5053822;28;19967;-56
2023/05/05 05:07:47;;;;;;;;;;;;;;;;;;5050636;28;20409;-60
2023/05/05 05:10:13;;;;;;;;;;;;;;;;;;5053991;28;19921;-60
2023/05/05 05:12:39;;;;;;;;;;;;;;;;;;5051990;28;19928;-60
2023/05/05 05:15:05;;;;;;;;;;;;;;;;;;5054152;28;19944;-59
2023/05/05 05:17:31;;;;;;;;;;;;;;;;;;5053761;28;19936;-60
2023/05/05 05:20:00;;;;;;;;;;;;;;;;;;5052907;28;20383;-60
2023/05/05 05:22:26;;;;;;;;;;;;;;;;;;5053645;28;19921;-60
2023/05/05 05:24:52;;;;;;;;;;;;;;;;;;5053557;28;19952;-60
2023/05/05 05:27:18;;;;;;;;;;;;;;;;;;5052961;28;19925;-60
2023/05/05 05:29:44;;;;;;;;;;;;;;;;;;5053595;28;19943;-60
2023/05/05 05:32:10;;;;;;;;;;;;;;;;;;5052011;28;19925;-60
2023/05/05 05:34:36;;;;;;;;;;;;;;;;;;5052676;28;19920;-59
2023/05/05 05:37:02;;;;;;;;;;;;;;;;;;5051608;28;19921;-56
2023/05/05 05:39:28;;;;;;;;;;;;;;;;;;5050239;28;19924;-58
2023/05/05 05:41:53;;;;;;;;;;;;;;;;;;5052860;28;20007;-58
2023/05/05 05:44:19;;;;;;;;;;;;;;;;;;5052112;28;19925;-57
2023/05/05 05:46:45;;;;;;;;;;;;;;;;;;5053207;28;19928;-56
2023/05/05 05:49:11;;;;;;;;;;;;;;;;;;5053076;28;19956;-56
2023/05/05 05:51:37;;;;;;;;;;;;;;;;;;5052495;28;19943;-58
2023/05/05 05:54:03;;;;;;;;;;;;;;;;;;5053152;28;19921;-57
2023/05/05 05:56:29;;;;;;;;;;;;;;;;;;5053111;28;19920;-56
2023/05/05 05:58:55;;;;;;;;;;;;;;;;;;5052088;28;20282;-57
2023/05/05 06:01:21;;;;;;;;;;;;;;;;;;5052699;28;20256;-58
2023/05/05 06:03:47;;;;;;;;;;;;;;;;;;5052716;28;20423;-57
2023/05/05 06:06:13;;;;;;;;;;;;;;;;;;5052227;28;19929;-58
2023/05/05 06:08:39;;;;;;;;;;;;;;;;;;5052850;28;19925;-58
2023/05/05 06:11:05;;;;;;;;;;;;;;;;;;5051350;28;19993;-58
2023/05/05 06:13:31;;;;;;;;;;;;;;;;;;5052519;28;19921;-57
2023/05/05 06:15:57;;;;;;;;;;;;;;;;;;5052508;28;19944;-57
2023/05/05 06:18:23;;;;;;;;;;;;;;;;;;5052562;28;19929;-58
2023/05/05 06:20:49;;;;;;;;;;;;;;;;;;5052189;28;20021;-57
2023/05/05 06:23:15;;;;;;;;;;;;;;;;;;5052297;28;19932;-57
2023/05/05 06:25:42;;;;;;;;;;;;;;;;;;5052274;28;19924;-56
2023/05/05 06:28:08;;;;;;;;;;;;;;;;;;5051804;28;19921;-56
2023/05/05 06:30:33;;;;;;;;;;;;;;;;;;5052263;28;19924;-58
2023/05/05 06:33:00;;;;;;;;;;;;;;;;;;5051007;28;19971;-57
2023/05/05 06:35:25;;;;;;;;;;;;;;;;;;5050284;28;20007;-59
2023/05/05 06:37:51;;;;;;;;;;;;;;;;;;5052444;28;19933;-59
2023/05/05 06:40:17;;;;;;;;;;;;;;;;;;5052128;28;19932;-58
2023/05/05 06:42:43;;;;;;;;;;;;;;;;;;5050072;28;19920;-58
2023/05/05 06:45:09;;;;;;;;;;;;;;;;;;5050894;28;20003;-54
2023/05/05 06:47:35;;;;;;;;;;;;;;;;;;5051190;28;20027;-58
2023/05/05 06:50:02;;;;;;;;;;;;;;;;;;5051562;28;19924;-56
2023/05/05 06:52:28;;;;;;;;;;;;;;;;;;5050100;28;19932;-56
2023/05/05 06:54:54;;;;;;;;;;;;;;;;;;5051703;28;19921;-56
2023/05/05 06:57:20;;;;;;;;;;;;;;;;;;5051778;28;19925;-56
2023/05/05 06:59:46;;;;;;;;;;;;;;;;;;5051901;28;19932;-58
2023/05/05 07:02:12;;;;;;;;;;;;;;;;;;5052060;28;19927;-58
2023/05/05 07:04:38;;;;;;;;;;;;;;;;;;5051157;28;19920;-56
2023/05/05 07:07:04;;;;;;;;;;;;;;;;;;5051677;28;19925;-58
2023/05/05 07:09:30;;;;;;;;;;;;;;;;;;5052061;28;20805;-57
2023/05/05 07:11:56;;;;;;;;;;;;;;;;;;5051008;28;20050;-57
2023/05/05 07:14:22;;;;;;;;;;;;;;;;;;5050969;28;19920;-58
2023/05/05 07:16:48;;;;;;;;;;;;;;;;;;5052361;28;19931;-59
2023/05/05 07:19:14;;;;;;;;;;;;;;;;;;5058807;28;19925;-58
2023/05/05 07:21:40;;;;;;;;;;;;;;;;;;5049899;28;19964;-59
2023/05/05 07:24:06;;;;;;;;;;;;;;;;;;5048998;28;20022;-58
2023/05/05 07:26:32;;;;;;;;;;;;;;;;;;5049335;28;19931;-57
2023/05/05 07:28:58;;;;;;;;;;;;;;;;;;5050637;28;19925;-57
2023/05/05 07:31:24;;;;;;;;;;;;;;;;;;5050319;28;19943;-58
2023/05/05 07:33:50;;;;;;;;;;;;;;;;;;5049330;28;19921;-57
2023/05/05 07:36:16;;;;;;;;;;;;;;;;;;5048637;28;19924;-59
2023/05/05 07:38:42;;;;;;;;;;;;;;;;;;5049742;28;20004;-59
2023/05/05 07:41:10;;;;;;;;;;;;;;;;;;5049914;28;20027;-54
2023/05/05 07:43:36;;;;;;;;;;;;;;;;;;5049816;28;19951;-57
2023/05/05 07:46:02;;;;;;;;;;;;;;;;;;5058661;28;20011;-59
2023/05/05 07:48:29;;;;;;;;;;;;;;;;;;5051605;28;20015;-59
2023/05/05 07:50:55;;;;;;;;;;;;;;;;;;5053481;28;21130;-57
2023/05/05 07:53:20;;;;;;;;;;;;;;;;;;5048638;28;19929;-57
2023/05/05 07:55:46;;;;;;;;;;;;;;;;;;5049344;28;19928;-59
2023/05/05 07:58:12;;;;;;;;;;;;;;;;;;5049928;28;19920;-58
2023/05/05 08:00:38;;;;;;;;;;;;;;;;;;5050052;28;20019;-58
2023/05/05 08:03:04;;;;;;;;;;;;;;;;;;5048801;28;19932;-57
2023/05/05 08:05:30;;;;;;;;;;;;;;;;;;5061573;28;19931;-58
2023/05/05 08:07:56;;;;;;;;;;;;;;;;;;5050084;28;20382;-58
2023/05/05 08:10:22;;;;;;;;;;;;;;;;;;5049593;28;19924;-56
2023/05/05 08:12:48;;;;;;;;;;;;;;;;;;5049492;28;20388;-57
2023/05/05 08:15:14;;;;;;;;;;;;;;;;;;5048545;28;19920;-57
2023/05/05 08:17:40;;;;;;;;;;;;;;;;;;5049684;28;19924;-58
2023/05/05 08:20:06;;;;;;;;;;;;;;;;;;5048070;28;20271;-58
2023/05/05 08:22:32;;;;;;;;;;;;;;;;;;5079523;28;19925;-59
2023/05/05 08:24:58;;;;;;;;;;;;;;;;;;5047814;28;19952;-58
2023/05/05 08:27:24;;;;;;;;;;;;;;;;;;5048615;28;19921;-57
2023/05/05 08:29:50;;;;;;;;;;;;;;;;;;5049584;28;19929;-59
2023/05/05 08:32:16;;;;;;;;;;;;;;;;;;5048951;28;19925;-59
2023/05/05 08:34:42;;;;;;;;;;;;;;;;;;5055196;28;20023;-59
2023/05/05 08:37:08;;;;;;;;;;;;;;;;;;5048944;28;20012;-58
2023/05/05 08:39:34;;;;;;;;;;;;;;;;;;5047354;28;19929;-56
2023/05/05 08:42:01;;;;;;;;;;;;;;;;;;5049602;28;19947;-56
2023/05/05 08:44:27;;;;;;;;;;;;;;;;;;5050500;28;19991;-56
2023/05/05 08:46:53;;;;;;;;;;;;;;;;;;5048940;28;19924;-59
2023/05/05 08:49:19;;;;;;;;;;;;;;;;;;5054851;28;20367;-59
2023/05/05 08:51:45;;;;;;;;;;;;;;;;;;5049024;28;19924;-59
2023/05/05 08:54:11;;;;;;;;;;;;;;;;;;5050948;28;19925;-59
2023/05/05 08:56:37;;;;;;;;;;;;;;;;;;5049325;28;19979;-59
2023/05/05 08:59:03;;;;;;;;;;;;;;;;;;5045532;28;19968;-59
2023/05/05 09:01:29;;;;;;;;;;;;;;;;;;5049921;28;19925;-59
2023/05/05 09:03:55;;;;;;;;;;;;;;;;;;5052815;28;20283;-59
2023/05/05 09:06:22;;;;;;;;;;;;;;;;;;5052870;28;19925;-57
2023/05/05 09:08:48;;;;;;;;;;;;;;;;;;5049147;28;19929;-57
2023/05/05 09:11:14;;;;;;;;;;;;;;;;;;5049404;28;20020;-58
2023/05/05 09:13:40;;;;;;;;;;;;;;;;;;5053881;28;20039;-58
2023/05/05 09:16:06;;;;;;;;;;;;;;;;;;5052204;28;19927;-57
2023/05/05 09:18:32;;;;;;;;;;;;;;;;;;5051594;28;19925;-58
2023/05/05 09:20:58;;;;;;;;;;;;;;;;;;5051242;28;20389;-59
2023/05/05 09:23:24;;;;;;;;;;;;;;;;;;5046957;28;19929;-58
2023/05/05 09:25:50;;;;;;;;;;;;;;;;;;5055641;28;19983;-58
2023/05/05 09:28:16;;;;;;;;;;;;;;;;;;5054210;28;20244;-56
2023/05/05 09:30:42;;;;;;;;;;;;;;;;;;5050799;28;20011;-58
2023/05/05 09:33:08;;;;;;;;;;;;;;;;;;5054671;28;19943;-57
2023/05/05 09:35:34;;;;;;;;;;;;;;;;;;5061579;28;19939;-58
2023/05/05 09:38:00;;;;;;;;;;;;;;;;;;5057163;28;19920;-59
2023/05/05 09:40:26;;;;;;;;;;;;;;;;;;5051973;28;19929;-58
2023/05/05 09:42:52;;;;;;;;;;;;;;;;;;5051798;28;19925;-57
2023/05/05 09:45:18;;;;;;;;;;;;;;;;;;5052508;28;19927;-59
2023/05/05 09:47:46;;;;;;;;;;;;;;;;;;5053428;28;20008;-60
2023/05/05 09:50:17;;;;;;;;;;;;;;;;;;5052128;28;19928;-59
2023/05/05 09:52:43;;;;;;;;;;;;;;;;;;5052378;28;19921;-60
2023/05/05 09:55:09;;;;;;;;;;;;;;;;;;5051796;28;19925;-60
2023/05/05 09:57:35;;;;;;;;;;;;;;;;;;5055689;28;20412;-60
2023/05/05 10:00:01;;;;;;;;;;;;;;;;;;5058044;28;20012;-59
2023/05/05 10:02:27;;;;;;;;;;;;;;;;;;5050789;28;19921;-59
2023/05/05 10:04:53;;;;;;;;;;;;;;;;;;5051805;28;19927;-58
2023/05/05 10:07:19;;;;;;;;;;;;;;;;;;5051905;28;19947;-59
2023/05/05 10:09:45;;;;;;;;;;;;;;;;;;5052333;28;20178;-59
2023/05/05 10:12:11;;;;;;;;;;;;;;;;;;5052286;28;19975;-59
2023/05/05 10:14:37;;;;;;;;;;;;;;;;;;5052045;28;19978;-58
2023/05/05 10:17:03;;;;;;;;;;;;;;;;;;5051696;28;19944;-59
2023/05/05 10:19:31;;;;;;;;;;;;;;;;;;5051996;28;19984;-59
2023/05/05 10:21:57;;;;;;;;;;;;;;;;;;5052120;28;19924;-58
2023/05/05 10:24:23;;;;;;;;;;;;;;;;;;5052204;28;19932;-59
2023/05/05 10:26:49;;;;;;;;;;;;;;;;;;5051881;28;19929;-58
2023/05/05 10:29:15;;;;;;;;;;;;;;;;;;5052219;28;19920;-59
2023/05/05 10:31:41;;;;;;;;;;;;;;;;;;5051014;28;19928;-59
2023/05/05 10:34:07;;;;;;;;;;;;;;;;;;5051418;28;19927;-59
2023/05/05 10:36:33;;;;;;;;;;;;;;;;;;5050932;28;19968;-59
2023/05/05 10:38:59;;;;;;;;;;;;;;;;;;5049617;28;19929;-59
2023/05/05 10:41:29;;;;;;;;;;;;;;;;;;5051358;28;19967;-59
2023/05/05 10:43:56;;;;;;;;;;;;;;;;;;5050544;28;20015;-59
2023/05/05 10:46:22;;;;;;;;;;;;;;;;;;5034322;28;19928;-60
2023/05/05 10:48:48;;;;;;;;;;;;;;;;;;5049690;28;19925;-59
2023/05/05 10:51:14;;;;;;;;;;;;;;;;;;5050768;28;19928;-60
2023/05/05 10:53:40;;;;;;;;;;;;;;;;;;5050193;28;19925;-59
2023/05/05 10:56:06;;;;;;;;;;;;;;;;;;5050360;28;20319;-60
2023/05/05 10:58:32;;;;;;;;;;;;;;;;;;5048808;28;19925;-60
2023/05/05 11:00:58;;;;;;;;;;;;;;;;;;5050411;28;19943;-59
2023/05/05 11:03:24;;;;;;;;;;;;;;;;;;5048161;28;20396;-60
2023/05/05 11:05:50;;;;;;;;;;;;;;;;;;5033755;28;19925;-59
2023/05/05 11:08:16;;;;;;;;;;;;;;;;;;5049663;28;20349;-59
2023/05/05 11:10:42;;;;;;;;;;;;;;;;;;5050751;28;20015;-60
2023/05/05 11:13:08;;;;;;;;;;;;;;;;;;5049959;28;19967;-59
2023/05/05 11:15:36;;;;;;;;;;;;;;;;;;5050998;28;19990;-60
2023/05/05 11:18:02;;;;;;;;;;;;;;;;;;5049093;28;19972;-59
2023/05/05 11:20:28;;;;;;;;;;;;;;;;;;5049508;28;20389;-58
2023/05/05 11:22:54;;;;;;;;;;;;;;;;;;5047694;28;19920;-60
2023/05/05 11:25:20;;;;;;;;;;;;;;;;;;5061570;28;19924;-59
2023/05/05 11:27:46;;;;;;;;;;;;;;;;;;5049455;28;19975;-59
2023/05/05 11:30:12;;;;;;;;;;;;;;;;;;5048266;28;19928;-59
2023/05/05 11:32:39;;;;;;;;;;;;;;;;;;5049177;28;21180;-60
2023/05/05 11:35:06;;;;;;;;;;;;;;;;;;5050262;28;20290;-60
2023/05/05 11:37:31;;;;;;;;;;;;;;;;;;5049300;28;19921;-59
2023/05/05 11:39:58;;;;;;;;;;;;;;;;;;5049650;28;19979;-59
2023/05/05 11:42:24;;;;;;;;;;;;;;;;;;5050248;28;19925;-59
2023/05/05 11:44:50;;;;;;;;;;;;;;;;;;5049058;28;20824;-60
2023/05/05 11:47:16;;;;;;;;;;;;;;;;;;5049178;28;19929;-61
2023/05/05 11:49:42;;;;;;;;;;;;;;;;;;5049006;28;19932;-61
2023/05/05 11:52:08;;;;;;;;;;;;;;;;;;5046916;28;19971;-60
2023/05/05 11:54:34;;;;;;;;;;;;;;;;;;5048209;28;19924;-61
2023/05/05 11:57:07;;;;;;;;;;;;;;;;;;5049177;28;19947;-61
2023/05/05 11:59:33;;;;;;;;;;;;;;;;;;5048737;28;19951;-61
2023/05/05 12:01:59;;;;;;;;;;;;;;;;;;5049795;28;19928;-61
2023/05/05 12:04:25;;;;;;;;;;;;;;;;;;5050561;28;19920;-60
2023/05/05 12:06:51;;;;;;;;;;;;;;;;;;5048212;28;19925;-59
2023/05/05 12:09:17;;;;;;;;;;;;;;;;;;5050125;28;20011;-60
2023/05/05 12:11:43;;;;;;;;;;;;;;;;;;5048951;28;19925;-58
2023/05/05 12:14:09;;;;;;;;;;;;;;;;;;5046988;28;19990;-61
2023/05/05 12:16:35;;;;;;;;;;;;;;;;;;5049272;28;19924;-60
2023/05/05 12:19:01;;;;;;;;;;;;;;;;;;5051574;28;20349;-60
2023/05/05 12:21:27;;;;;;;;;;;;;;;;;;5049853;28;20008;-59
2023/05/05 12:23:53;;;;;;;;;;;;;;;;;;5049656;28;20047;-60
2023/05/05 12:26:19;;;;;;;;;;;;;;;;;;5050374;28;19925;-62
2023/05/05 12:28:45;;;;;;;;;;;;;;;;;;5049827;28;20477;-61
2023/05/05 12:31:11;;;;;;;;;;;;;;;;;;5049549;28;19995;-60
2023/05/05 12:33:37;;;;;;;;;;;;;;;;;;5049827;28;19951;-61
2023/05/05 12:36:03;;;;;;;;;;;;;;;;;;5049909;28;19971;-61
2023/05/05 12:38:29;;;;;;;;;;;;;;;;;;5049455;28;19924;-61
2023/05/05 12:40:55;;;;;;;;;;;;;;;;;;5049664;28;19928;-61
2023/05/05 12:43:21;;;;;;;;;;;;;;;;;;5049609;28;20007;-62
2023/05/05 12:45:48;;;;;;;;;;;;;;;;;;5051304;28;20012;-61
2023/05/05 12:48:14;;;;;;;;;;;;;;;;;;5053601;28;19928;-60
2023/05/05 12:50:40;;;;;;;;;;;;;;;;;;5053928;28;19925;-60
2023/05/05 12:53:06;;;;;;;;;;;;;;;;;;5053298;28;19928;-60
2023/05/05 12:55:32;;;;;;;;;;;;;;;;;;5053977;28;20086;-60
2023/05/05 12:57:59;;;;;;;;;;;;;;;;;;5054185;28;19924;-59
2023/05/05 13:00:25;;;;;;;;;;;;;;;;;;5053023;28;19924;-60
2023/05/05 13:02:51;;;;;;;;;;;;;;;;;;5053699;28;20505;-58
2023/05/05 13:05:17;;;;;;;;;;;;;;;;;;5053457;28;20379;-60
2023/05/05 13:07:43;;;;;;;;;;;;;;;;;;5051255;28;19924;-60
2023/05/05 13:10:09;;;;;;;;;;;;;;;;;;5053700;28;19931;-60
2023/05/05 13:12:36;;;;;;;;;;;;;;;;;;5053167;28;19936;-61
2023/05/05 13:15:02;;;;;;;;;;;;;;;;;;5051745;28;19921;-61
2023/05/05 13:17:28;;;;;;;;;;;;;;;;;;5053166;28;20018;-61
2023/05/05 13:19:54;;;;;;;;;;;;;;;;;;5053260;28;19943;-58
2023/05/05 13:22:20;;;;;;;;;;;;;;;;;;5052855;28;19974;-59
2023/05/05 13:24:46;;;;;;;;;;;;;;;;;;5052813;28;19928;-60
2023/05/05 13:27:12;;;;;;;;;;;;;;;;;;5052057;28;19960;-59
2023/05/05 13:29:37;;;;;;;;;;;;;;;;;;5052503;28;19920;-59
2023/05/05 13:32:03;;;;;;;;;;;;;;;;;;5053256;28;19920;-59
2023/05/05 13:34:29;;;;;;;;;;;;;;;;;;5053565;28;20633;-59
2023/05/05 13:36:55;;;;;;;;;;;;;;;;;;5051229;28;19951;-61
2023/05/05 13:39:21;;;;;;;;;;;;;;;;;;5053283;28;19955;-62
2023/05/05 13:41:47;;;;;;;;;;;;;;;;;;5053525;28;19925;-62
2023/05/05 13:44:13;;;;;;;;;;;;;;;;;;5052935;28;19927;-62
2023/05/05 13:46:39;;;;;;;;;;;;;;;;;;5053455;28;20047;-62
2023/05/05 13:49:05;;;;;;;;;;;;;;;;;;5053291;28;19970;-62
2023/05/05 13:51:33;;;;;;;;;;;;;;;;;;5052665;28;19929;-62
2023/05/05 13:53:59;;;;;;;;;;;;;;;;;;5052957;28;19947;-62
2023/05/05 13:56:26;;;;;;;;;;;;;;;;;;5068002;28;19964;-62
2023/05/05 13:58:52;;;;;;;;;;;;;;;;;;5052536;28;19929;-62
2023/05/05 14:01:18;;;;;;;;;;;;;;;;;;5052795;28;20379;-62
2023/05/05 14:03:44;;;;;;;;;;;;;;;;;;5053053;28;19920;-62
2023/05/05 14:06:10;;;;;;;;;;;;;;;;;;5051195;28;19928;-62
2023/05/05 14:08:36;;;;;;;;;;;;;;;;;;5052940;28;20287;-62
2023/05/05 14:11:02;;;;;;;;;;;;;;;;;;5052536;28;19923;-62
2023/05/05 14:13:28;;;;;;;;;;;;;;;;;;5084530;28;19932;-62
2023/05/05 14:15:54;;;;;;;;;;;;;;;;;;5052814;28;19939;-62
2023/05/05 14:18:21;;;;;;;;;;;;;;;;;;5052716;28;19947;-62
2023/05/05 14:20:47;;;;;;;;;;;;;;;;;;5052185;28;19928;-62
2023/05/05 14:23:13;;;;;;;;;;;;;;;;;;5052340;28;19925;-62
2023/05/05 14:25:39;;;;;;;;;;;;;;;;;;5051473;28;19928;-62
2023/05/05 14:28:06;;;;;;;;;;;;;;;;;;5052040;28;19925;-62
2023/05/05 14:30:31;;;;;;;;;;;;;;;;;;5052758;28;19970;-62
2023/05/05 14:32:57;;;;;;;;;;;;;;;;;;5052375;28;19925;-62
2023/05/05 14:35:23;;;;;;;;;;;;;;;;;;5051828;28;19984;-62
2023/05/05 14:37:49;;;;;;;;;;;;;;;;;;5052191;28;19983;-62
2023/05/05 14:40:15;;;;;;;;;;;;;;;;;;5052595;28;19924;-62
2023/05/05 14:42:41;;;;;;;;;;;;;;;;;;5052159;28;20007;-62
2023/05/05 14:45:09;;;;;;;;;;;;;;;;;;5052151;28;19921;-62
2023/05/05 14:47:35;;;;;;;;;;;;;;;;;;5052276;28;19931;-62
2023/05/05 14:50:01;;;;;;;;;;;;;;;;;;5051656;28;19921;-62
2023/05/05 14:52:27;;;;;;;;;;;;;;;;;;5052271;28;19957;-62
2023/05/05 14:54:53;;;;;;;;;;;;;;;;;;5052334;28;19927;-62
2023/05/05 14:57:19;;;;;;;;;;;;;;;;;;5051620;28;19925;-62
2023/05/05 14:59:50;;;;;;;;;;;;;;;;;;5052287;28;20008;-62
2023/05/05 15:02:16;;;;;;;;;;;;;;;;;;5052184;28;20011;-62
2023/05/05 15:04:41;;;;;;;;;;;;;;;;;;5051502;28;20003;-62
2023/05/05 15:07:10;;;;;;;;;;;;;;;;;;5051417;28;19929;-62
2023/05/05 15:09:36;;;;;;;;;;;;;;;;;;5051494;28;20015;-62
2023/05/05 15:12:02;;;;;;;;;;;;;;;;;;5051156;28;19925;-62
2023/05/05 15:14:28;;;;;;;;;;;;;;;;;;5051871;28;19929;-62
2023/05/05 15:16:54;;;;;;;;;;;;;;;;;;5051857;28;19924;-62
2023/05/05 15:19:20;;;;;;;;;;;;;;;;;;5051152;28;20007;-62
2023/05/05 15:21:51;;;;;;;;;;;;;;;;;;5051597;28;20015;-62
2023/05/05 15:24:17;;;;;;;;;;;;;;;;;;5051378;28;19924;-62
2023/05/05 15:26:43;;;;;;;;;;;;;;;;;;5051013;28;20638;-62
2023/05/05 15:29:09;;;;;;;;;;;;;;;;;;5051520;28;19925;-62
2023/05/05 15:31:35;;;;;;;;;;;;;;;;;;5050294;28;19939;-62
2023/05/05 15:34:01;;;;;;;;;;;;;;;;;;5050731;28;19979;-62
2023/05/05 15:36:27;;;;;;;;;;;;;;;;;;5051171;28;20387;-62
2023/05/05 15:38:53;;;;;;;;;;;;;;;;;;5051139;28;19925;-62
2023/05/05 15:41:19;;;;;;;;;;;;;;;;;;5050763;28;20047;-62
2023/05/05 15:43:45;;;;;;;;;;;;;;;;;;5051212;28;19990;-62
2023/05/05 15:46:11;;;;;;;;;;;;;;;;;;5051311;28;19921;-62
2023/05/05 15:48:37;;;;;;;;;;;;;;;;;;5050799;28;19925;-62
2023/05/05 15:51:03;;;;;;;;;;;;;;;;;;5050723;28;19956;-62
2023/05/05 15:53:29;;;;;;;;;;;;;;;;;;5051012;28;19927;-62
2023/05/05 15:55:55;;;;;;;;;;;;;;;;;;5051202;28;19925;-62
2023/05/05 15:58:21;;;;;;;;;;;;;;;;;;5049022;28;20492;-62
2023/05/05 16:00:47;;;;;;;;;;;;;;;;;;5051084;28;19921;-62
2023/05/05 16:03:13;;;;;;;;;;;;;;;;;;5050861;28;19954;-62
2023/05/05 16:05:40;;;;;;;;;;;;;;;;;;5050465;28;19963;-62
2023/05/05 16:08:09;;;;;;;;;;;;;;;;;;5049498;28;19924;-61
2023/05/05 16:10:35;;;;;;;;;;;;;;;;;;5051007;28;19925;-62
2023/05/05 16:13:01;;;;;;;;;;;;;;;;;;5049952;28;20450;-62
2023/05/05 16:15:27;;;;;;;;;;;;;;;;;;5050961;28;19925;-62
2023/05/05 16:17:53;;;;;;;;;;;;;;;;;;5050873;28;19974;-62
2023/05/05 16:20:19;;;;;;;;;;;;;;;;;;5050178;28;19924;-62
2023/05/05 16:22:45;;;;;;;;;;;;;;;;;;5050567;28;19928;-62
2023/05/05 16:25:11;;;;;;;;;;;;;;;;;;5050206;28;19929;-62
2023/05/05 16:27:36;;;;;;;;;;;;;;;;;;5048794;28;20012;-62
2023/05/05 16:30:02;;;;;;;;;;;;;;;;;;5050493;28;19982;-62
2023/05/05 16:32:28;;;;;;;;;;;;;;;;;;5050809;28;19960;-62
2023/05/05 16:34:54;;;;;;;;;;;;;;;;;;5049886;28;19925;-62
2023/05/05 16:37:20;;;;;;;;;;;;;;;;;;5050610;28;20008;-62